Time;durP1;ratioP1;P1;durP2;ratioP2;P2;SDS_P1;SDS_P2;PMS_P1;PMS_P2;Temp;Humidity;BMP_temperature;BMP_pressure;BME280_temperature;BME280_humidity;BME280_pressure;Samples;Min_cycle;Max_cycle;Signal;HPM_P1;HPM_P2
2022/09/02 00:01:51;;;;;;;7.97;3.80;;;16.40;99.90;;;;;;7385349;19;20444;-54
2022/09/02 00:04:23;;;;;;;3.87;3.57;;;16.40;99.90;;;;;;7390900;19;20887;-54
2022/09/02 00:06:54;;;;;;;4.13;3.83;;;16.30;99.90;;;;;;7385919;19;20414;-54
2022/09/02 00:09:29;;;;;;;4.17;3.27;;;16.30;99.90;;;;;;7390617;19;20380;-54
2022/09/02 00:12:01;;;;;;;3.87;3.57;;;16.20;99.90;;;;;;7387515;19;20418;-46
2022/09/02 00:14:39;;;;;;;4.20;3.70;;;16.10;99.90;;;;;;7389595;19;20376;-46
2022/09/02 00:17:08;;;;;;;4.83;3.27;;;16.20;99.90;;;;;;7388479;19;20953;-46
2022/09/02 00:19:38;;;;;;;3.87;3.47;;;16.00;99.90;;;;;;7388464;19;20913;-46
2022/09/02 00:22:08;;;;;;;9.73;4.20;;;15.90;99.90;;;;;;7389464;19;20475;-46
2022/09/02 00:24:40;;;;;;;3.80;3.50;;;15.90;99.90;;;;;;7390475;19;20440;-46
2022/09/02 00:27:09;;;;;;;4.00;3.70;;;15.80;99.90;;;;;;7390500;19;21076;-46
2022/09/02 00:29:41;;;;;;;3.87;3.50;;;15.80;99.90;;;;;;7387809;19;20380;-46
2022/09/02 00:32:11;;;;;;;3.93;3.40;;;15.80;99.90;;;;;;7389711;19;20376;-46
2022/09/02 00:34:41;;;;;;;3.93;3.60;;;15.80;99.90;;;;;;7388373;19;20387;-46
2022/09/02 00:37:12;;;;;;;4.23;3.83;;;15.80;99.90;;;;;;7388771;19;20372;-46
2022/09/02 00:39:44;;;;;;;4.70;3.67;;;15.70;99.90;;;;;;7389126;19;20902;-54
2022/09/02 00:42:14;;;;;;;3.60;3.30;;;15.80;99.90;;;;;;7389021;19;20380;-55
2022/09/02 00:44:43;;;;;;;3.90;3.60;;;16.00;99.90;;;;;;7390189;19;20447;-55
2022/09/02 00:47:14;;;;;;;4.07;3.70;;;16.20;99.90;;;;;;7388215;19;20380;-55
2022/09/02 00:49:50;;;;;;;3.90;3.20;;;16.30;99.90;;;;;;7387877;19;20376;-55
2022/09/02 00:52:24;;;;;;;3.87;3.47;;;16.30;99.90;;;;;;7388136;19;20733;-55
2022/09/02 00:55:00;;;;;;;3.70;3.40;;;16.40;99.90;;;;;;7384655;19;20368;-55
2022/09/02 00:57:33;;;;;;;4.13;3.80;;;16.30;99.90;;;;;;7386394;19;20964;-55
2022/09/02 01:00:09;;;;;;;3.37;3.07;;;16.10;99.90;;;;;;7385331;19;20376;-55
2022/09/02 01:02:40;;;;;;;4.80;2.97;;;16.00;99.90;;;;;;7385783;19;20913;-55
2022/09/02 01:05:14;;;;;;;3.77;3.47;;;15.90;99.90;;;;;;7387493;19;20376;-55
2022/09/02 01:07:44;;;;;;;5.90;3.70;;;16.00;99.90;;;;;;7386330;19;20470;-55
2022/09/02 01:10:21;;;;;;;4.60;3.60;;;15.90;99.90;;;;;;7386186;19;20412;-55
2022/09/02 01:12:56;;;;;;;4.30;3.30;;;15.90;99.90;;;;;;7388228;19;20415;-55
2022/09/02 01:15:29;;;;;;;3.60;3.30;;;15.80;99.90;;;;;;7386874;19;20726;-55
2022/09/02 01:18:00;;;;;;;3.23;2.93;;;15.80;99.90;;;;;;7387341;19;20688;-55
2022/09/02 01:20:29;;;;;;;3.97;3.17;;;15.80;99.90;;;;;;7385982;19;20954;-55
2022/09/02 01:23:02;;;;;;;4.80;3.80;;;15.70;99.90;;;;;;7385867;19;20380;-55
2022/09/02 01:25:33;;;;;;;4.23;3.47;;;15.60;99.90;;;;;;7386653;19;20378;-55
2022/09/02 01:28:04;;;;;;;6.03;3.27;;;15.60;99.90;;;;;;7385878;19;20387;-55
2022/09/02 01:30:38;;;;;;;4.03;3.60;;;15.50;99.90;;;;;;7386254;19;20388;-55
2022/09/02 01:33:08;;;;;;;4.47;3.90;;;15.70;99.90;;;;;;7387367;19;20501;-55
2022/09/02 01:35:39;;;;;;;3.90;3.50;;;15.70;99.90;;;;;;7385793;19;20439;-55
2022/09/02 01:38:11;;;;;;;4.30;3.60;;;15.60;99.90;;;;;;7386000;19;20384;-55
2022/09/02 01:40:42;;;;;;;4.37;3.30;;;15.60;99.90;;;;;;7386867;19;20946;-55
2022/09/02 01:43:14;;;;;;;3.93;3.60;;;15.50;99.90;;;;;;7387690;19;20914;-55
2022/09/02 01:45:45;;;;;;;4.60;3.83;;;15.50;99.90;;;;;;7384105;19;20380;-55
2022/09/02 01:48:16;;;;;;;5.20;4.07;;;15.50;99.90;;;;;;7386452;19;20455;-55
2022/09/02 01:50:48;;;;;;;4.90;3.57;;;15.50;99.90;;;;;;7384696;19;20380;-55
2022/09/02 01:53:21;;;;;;;4.30;3.90;;;15.40;99.90;;;;;;7384936;19;20372;-54
2022/09/02 01:55:54;;;;;;;4.20;3.77;;;15.40;99.90;;;;;;7383303;19;20372;-55
2022/09/02 01:58:24;;;;;;;6.43;3.80;;;15.30;99.90;;;;;;7383642;19;20774;-55
2022/09/02 02:00:54;;;;;;;5.37;3.53;;;15.40;99.90;;;;;;7382210;19;20436;-55
2022/09/02 02:03:25;;;;;;;5.43;4.43;;;15.60;99.90;;;;;;7384917;19;20945;-55
2022/09/02 02:05:55;;;;;;;4.10;3.40;;;15.70;99.90;;;;;;7382775;19;20910;-55
2022/09/02 02:08:28;;;;;;;4.23;3.70;;;15.80;99.90;;;;;;7385352;19;20372;-54
2022/09/02 02:11:00;;;;;;;3.80;3.50;;;15.80;99.90;;;;;;7381741;19;20415;-51
2022/09/02 02:13:30;;;;;;;3.50;3.20;;;15.80;99.90;;;;;;7383339;19;20391;-46
2022/09/02 02:16:00;;;;;;;5.00;2.80;;;15.60;99.90;;;;;;7383667;19;20469;-46
2022/09/02 02:18:31;;;;;;;4.63;3.20;;;15.60;99.90;;;;;;7385614;19;20372;-47
2022/09/02 02:21:03;;;;;;;3.57;3.27;;;15.50;99.90;;;;;;7385504;19;20388;-46
2022/09/02 02:23:36;;;;;;;4.30;3.53;;;15.60;99.90;;;;;;7384601;19;20409;-46
2022/09/02 02:26:06;;;;;;;3.80;2.93;;;15.70;99.90;;;;;;7384255;19;20399;-46
2022/09/02 02:28:38;;;;;;;4.07;3.67;;;15.80;99.90;;;;;;7384699;19;20365;-46
2022/09/02 02:31:09;;;;;;;4.90;3.10;;;15.90;99.90;;;;;;7380759;19;20735;-46
2022/09/02 02:33:40;;;;;;;8.63;3.30;;;15.80;99.90;;;;;;7380063;19;20383;-46
2022/09/02 02:36:13;;;;;;;5.43;3.37;;;15.60;99.90;;;;;;7381570;19;20376;-46
2022/09/02 02:38:46;;;;;;;3.30;2.90;;;15.50;99.90;;;;;;7382973;19;20379;-46
2022/09/02 02:41:16;;;;;;;3.60;3.30;;;15.30;99.90;;;;;;7382995;19;20368;-54
2022/09/02 02:43:48;;;;;;;3.53;3.13;;;15.30;99.90;;;;;;7383342;19;20384;-54
2022/09/02 02:46:18;;;;;;;6.70;3.40;;;15.20;99.90;;;;;;7385053;19;20383;-55
2022/09/02 02:48:48;;;;;;;3.57;3.30;;;15.20;99.90;;;;;;7382732;19;20734;-55
2022/09/02 02:51:18;;;;;;;3.40;3.10;;;15.20;99.90;;;;;;7381690;19;21047;-55
2022/09/02 02:53:51;;;;;;;3.17;2.87;;;15.10;99.90;;;;;;7383472;19;20966;-55
2022/09/02 02:56:21;;;;;;;4.93;3.13;;;15.10;99.90;;;;;;7381708;19;20418;-55
2022/09/02 02:58:52;;;;;;;4.40;2.80;;;15.00;99.90;;;;;;7382761;19;20398;-55
2022/09/02 03:01:22;;;;;;;4.03;3.23;;;15.00;99.90;;;;;;7380422;19;20451;-54
2022/09/02 03:03:54;;;;;;;3.30;2.87;;;14.90;99.90;;;;;;7382353;19;20395;-54
2022/09/02 03:06:25;;;;;;;8.20;3.27;;;14.80;99.90;;;;;;7380883;19;20414;-54
2022/09/02 03:08:59;;;;;;;3.60;3.30;;;14.70;99.90;;;;;;7384307;19;20470;-54
2022/09/02 03:11:29;;;;;;;4.57;3.13;;;14.70;99.90;;;;;;7380956;19;20495;-54
2022/09/02 03:13:59;;;;;;;3.30;3.00;;;14.60;99.90;;;;;;7382538;19;20936;-54
2022/09/02 03:16:29;;;;;;;3.30;3.00;;;14.60;99.90;;;;;;7382407;19;20395;-54
2022/09/02 03:18:59;;;;;;;3.50;3.17;;;14.60;99.90;;;;;;7389577;19;20934;-45
2022/09/02 03:21:28;;;;;;;11.33;3.40;;;14.50;99.90;;;;;;7390704;19;20387;-46
2022/09/02 03:24:01;;;;;;;3.50;3.20;;;14.40;99.90;;;;;;7390603;19;20957;-45
2022/09/02 03:26:30;;;;;;;3.50;3.20;;;14.40;99.90;;;;;;7389934;19;20403;-46
2022/09/02 03:29:00;;;;;;;4.60;3.23;;;14.40;99.90;;;;;;7390225;19;20735;-45
2022/09/02 03:31:32;;;;;;;4.13;3.33;;;14.40;99.90;;;;;;7388546;19;20382;-45
2022/09/02 03:34:03;;;;;;;5.40;3.60;;;14.50;99.90;;;;;;7390231;19;20380;-45
2022/09/02 03:36:37;;;;;;;4.63;2.80;;;14.60;99.90;;;;;;7389899;19;20404;-45
2022/09/02 03:39:11;;;;;;;5.00;3.70;;;14.60;99.90;;;;;;7389809;19;20975;-45
2022/09/02 03:41:43;;;;;;;3.27;2.97;;;14.60;99.90;;;;;;7389179;19;20380;-45
2022/09/02 03:44:14;;;;;;;3.60;3.30;;;14.50;99.90;;;;;;7391198;19;20382;-45
2022/09/02 03:46:45;;;;;;;4.77;3.53;;;14.50;99.90;;;;;;7389631;19;20376;-45
2022/09/02 03:49:15;;;;;;;3.03;2.73;;;14.40;99.90;;;;;;7389697;19;20916;-45
2022/09/02 03:51:47;;;;;;;3.53;3.23;;;14.50;99.90;;;;;;7388699;19;20399;-54
2022/09/02 03:54:20;;;;;;;5.30;3.07;;;14.40;99.90;;;;;;7389061;19;20395;-54
2022/09/02 03:56:49;;;;;;;3.90;3.50;;;14.30;99.90;;;;;;7388641;19;20707;-54
2022/09/02 03:59:20;;;;;;;3.53;3.23;;;14.20;99.90;;;;;;7388649;19;20388;-54
2022/09/02 04:01:50;;;;;;;3.37;3.07;;;14.20;99.90;;;;;;7385167;19;20428;-54
2022/09/02 04:04:21;;;;;;;5.37;3.70;;;14.10;99.90;;;;;;7388464;19;20376;-56
2022/09/02 04:06:54;;;;;;;3.33;3.03;;;14.20;99.90;;;;;;7386746;19;20391;-56
2022/09/02 04:09:27;;;;;;;3.57;3.10;;;14.30;99.90;;;;;;7388908;19;20391;-54
2022/09/02 04:11:57;;;;;;;3.90;3.03;;;14.10;99.90;;;;;;7385821;19;20376;-54
2022/09/02 04:14:29;;;;;;;3.27;2.97;;;14.10;99.90;;;;;;7391298;19;20380;-54
2022/09/02 04:21:03;;;;;;;3.60;2.83;;;14.20;99.90;;;;;;7390408;19;20380;-54
2022/09/02 04:23:34;;;;;;;5.57;2.50;;;14.20;99.90;;;;;;7388289;19;20375;-54
2022/09/02 04:26:10;;;;;;;3.70;2.87;;;14.20;99.90;;;;;;7388230;19;20379;-54
2022/09/02 04:28:43;;;;;;;4.33;3.13;;;14.20;99.90;;;;;;7389913;19;20437;-54
2022/09/02 04:31:15;;;;;;;4.10;3.37;;;14.20;99.90;;;;;;7386220;19;20910;-54
2022/09/02 04:33:46;;;;;;;3.37;3.10;;;14.20;99.90;;;;;;7387345;19;20918;-54
2022/09/02 04:36:19;;;;;;;5.27;3.00;;;14.10;99.90;;;;;;7385810;19;20725;-54
2022/09/02 04:38:50;;;;;;;3.17;2.93;;;14.10;99.90;;;;;;7387557;19;20380;-53
2022/09/02 04:41:26;;;;;;;3.57;3.27;;;14.10;99.90;;;;;;7386594;19;20363;-54
2022/09/02 04:44:01;;;;;;;2.83;2.63;;;14.10;99.90;;;;;;7387337;19;20412;-54
2022/09/02 04:46:34;;;;;;;2.93;2.70;;;14.10;99.90;;;;;;7387275;19;20371;-54
2022/09/02 04:49:05;;;;;;;5.20;2.70;;;14.20;99.90;;;;;;7386477;19;20455;-53
2022/09/02 04:51:35;;;;;;;3.70;2.80;;;14.30;99.90;;;;;;7385790;19;20391;-54
2022/09/02 04:54:08;;;;;;;3.43;3.13;;;14.40;99.90;;;;;;7386669;19;20467;-54
2022/09/02 04:56:42;;;;;;;4.00;3.23;;;14.30;99.90;;;;;;7386639;19;20391;-54
2022/09/02 04:59:12;;;;;;;3.40;3.10;;;14.30;99.90;;;;;;7385574;19;20898;-54
2022/09/02 05:01:47;;;;;;;3.60;3.20;;;14.30;99.90;;;;;;7383413;19;20518;-54
2022/09/02 05:04:22;;;;;;;4.50;3.17;;;14.30;99.90;;;;;;7385176;19;20375;-54
2022/09/02 05:06:53;;;;;;;3.40;2.80;;;14.40;99.90;;;;;;7384288;19;20384;-54
2022/09/02 05:09:23;;;;;;;3.13;2.67;;;14.30;99.90;;;;;;7386295;19;20851;-54
2022/09/02 05:12:08;;;;;;;4.30;3.27;;;14.20;99.90;;;;;;7385231;19;20488;-54
2022/09/02 05:14:47;;;;;;;3.40;3.03;;;14.20;99.90;;;;;;7385742;19;20981;-55
2022/09/02 05:17:18;;;;;;;3.80;3.17;;;14.30;99.90;;;;;;7385438;19;20372;-54
2022/09/02 05:19:51;;;;;;;5.10;3.27;;;14.30;99.90;;;;;;7385880;19;21670;-45
2022/09/02 05:22:21;;;;;;;5.60;3.30;;;14.30;99.90;;;;;;7386186;19;20373;-46
2022/09/02 05:24:51;;;;;;;4.50;3.40;;;14.20;99.90;;;;;;7385688;19;20368;-46
2022/09/02 05:27:25;;;;;;;3.33;2.77;;;14.10;99.90;;;;;;7385623;19;20390;-46
2022/09/02 05:29:58;;;;;;;3.90;2.90;;;14.10;99.90;;;;;;7387076;19;20920;-45
2022/09/02 05:32:29;;;;;;;6.90;5.13;;;14.10;99.90;;;;;;7383750;19;20380;-45
2022/09/02 05:35:03;;;;;;;4.33;3.07;;;14.10;99.90;;;;;;7385514;19;20925;-45
2022/09/02 05:37:34;;;;;;;3.03;2.73;;;14.10;99.90;;;;;;7385555;19;20408;-46
2022/09/02 05:40:04;;;;;;;5.60;3.70;;;14.20;99.90;;;;;;7385912;19;20479;-46
2022/09/02 05:42:38;;;;;;;4.57;3.43;;;14.30;99.90;;;;;;7384758;19;20384;-46
2022/09/02 05:45:10;;;;;;;3.73;3.40;;;14.50;99.90;;;;;;7385157;19;20380;-46
2022/09/02 05:47:39;;;;;;;6.00;2.70;;;14.70;99.90;;;;;;7386360;19;20974;-46
2022/09/02 05:50:10;;;;;;;8.43;3.50;;;14.70;99.90;;;;;;7386763;19;20380;-46
2022/09/02 05:52:39;;;;;;;4.27;3.60;;;14.90;99.90;;;;;;7384920;19;20407;-46
2022/09/02 05:55:12;;;;;;;4.93;3.50;;;14.90;99.90;;;;;;7385396;19;20364;-46
2022/09/02 05:57:45;;;;;;;3.63;3.33;;;15.00;99.90;;;;;;7384394;19;20422;-46
2022/09/02 06:00:16;;;;;;;8.70;4.10;;;15.10;99.90;;;;;;7383757;19;20465;-46
2022/09/02 06:02:54;;;;;;;4.17;3.70;;;15.30;99.90;;;;;;7384480;19;20723;-46
2022/09/02 06:05:29;;;;;;;6.50;3.70;;;15.40;99.90;;;;;;7383598;19;20394;-46
2022/09/02 06:08:08;;;;;;;6.03;3.60;;;15.60;99.90;;;;;;7385402;19;21588;-46
2022/09/02 06:10:43;;;;;;;5.40;3.60;;;15.70;99.90;;;;;;7384036;19;20403;-46
2022/09/02 06:13:21;;;;;;;4.47;4.07;;;15.90;99.90;;;;;;7382523;19;20805;-46
2022/09/02 06:15:52;;;;;;;4.00;3.60;;;16.10;99.90;;;;;;7384932;19;20360;-46
2022/09/02 06:18:25;;;;;;;4.47;3.30;;;16.20;99.90;;;;;;7384475;19;20413;-46
2022/09/02 06:20:56;;;;;;;4.80;3.60;;;16.30;99.90;;;;;;7384576;19;20707;-48
2022/09/02 06:23:30;;;;;;;4.93;4.30;;;16.40;99.90;;;;;;7385478;19;20376;-48
2022/09/02 06:26:03;;;;;;;6.53;3.93;;;16.50;99.90;;;;;;7383529;19;20364;-48
2022/09/02 06:28:35;;;;;;;5.17;3.90;;;16.60;99.90;;;;;;7384509;19;20672;-48
2022/09/02 06:31:13;;;;;;;5.60;3.60;;;16.70;99.90;;;;;;7384350;19;20420;-48
2022/09/02 06:33:44;;;;;;;5.20;4.70;;;16.80;99.90;;;;;;7381884;19;20917;-45
2022/09/02 06:36:20;;;;;;;5.13;4.50;;;16.90;99.90;;;;;;7383920;19;20383;-48
2022/09/02 06:38:52;;;;;;;6.73;5.07;;;16.90;99.90;;;;;;7384006;19;20447;-45
2022/09/02 06:41:26;;;;;;;6.13;4.47;;;16.90;99.90;;;;;;7382772;19;20915;-48
2022/09/02 06:44:03;;;;;;;7.17;4.80;;;17.10;99.90;;;;;;7386128;19;20833;-48
2022/09/02 06:46:37;;;;;;;6.77;4.90;;;17.20;99.90;;;;;;7384253;19;21050;-48
2022/09/02 06:49:10;;;;;;;6.80;5.10;;;17.40;98.70;;;;;;7384086;19;20371;-47
2022/09/02 06:51:43;;;;;;;5.27;4.77;;;17.50;98.20;;;;;;7383883;19;20424;-48
2022/09/02 06:54:15;;;;;;;8.50;5.50;;;17.60;96.20;;;;;;7389435;19;21426;-48
2022/09/02 06:56:46;;;;;;;4.43;4.00;;;17.80;94.80;;;;;;7391332;19;20364;-46
2022/09/02 06:59:19;;;;;;;4.43;4.03;;;18.10;93.30;;;;;;7390249;19;20368;-48
2022/09/02 07:01:52;;;;;;;7.50;3.70;;;18.40;92.80;;;;;;7386672;19;20435;-46
2022/09/02 07:07:10;;;;;;;3.37;3.07;;;18.70;85.00;;;;;;7388376;19;20959;-46
2022/09/02 07:09:50;;;;;;;4.67;3.00;;;18.80;81.70;;;;;;7389828;19;20380;-46
2022/09/02 07:12:21;;;;;;;3.70;3.20;;;19.10;80.50;;;;;;7389651;19;20383;-46
2022/09/02 07:14:58;;;;;;;3.30;3.00;;;19.40;77.50;;;;;;7389364;19;20980;-46
2022/09/02 07:17:36;;;;;;;3.83;2.20;;;19.50;76.20;;;;;;7386891;19;20379;-46
2022/09/02 07:20:08;;;;;;;3.50;2.90;;;19.60;74.80;;;;;;7388801;19;20409;-55
2022/09/02 07:22:42;;;;;;;6.33;3.17;;;19.70;72.00;;;;;;7387763;19;20416;-55
2022/09/02 07:25:14;;;;;;;3.30;2.63;;;19.80;72.50;;;;;;7387634;19;20376;-55
2022/09/02 07:27:43;;;;;;;3.43;2.93;;;20.00;72.90;;;;;;7391304;19;20958;-55
2022/09/02 07:30:16;;;;;;;3.20;2.90;;;20.10;70.50;;;;;;7389913;19;20372;-55
2022/09/02 07:32:48;;;;;;;2.53;2.33;;;20.10;68.10;;;;;;7389159;19;21059;-55
2022/09/02 07:35:19;;;;;;;3.27;2.37;;;20.10;69.50;;;;;;7389811;19;20372;-56
2022/09/02 07:37:48;;;;;;;2.70;1.93;;;20.30;68.20;;;;;;7390451;19;20803;-55
2022/09/02 07:40:18;;;;;;;3.77;2.50;;;20.30;66.60;;;;;;7392210;19;20372;-55
2022/09/02 07:42:49;;;;;;;4.47;2.10;;;20.40;67.60;;;;;;7389283;19;21375;-56
2022/09/02 07:45:25;;;;;;;1.80;1.70;;;20.60;66.50;;;;;;7389612;19;20367;-56
2022/09/02 07:47:56;;;;;;;2.57;2.07;;;20.80;65.80;;;;;;7389934;19;20371;-57
2022/09/02 07:50:27;;;;;;;2.53;2.10;;;21.00;64.80;;;;;;7389680;19;20476;-48
2022/09/02 07:52:59;;;;;;;3.67;2.17;;;21.10;63.30;;;;;;7387179;19;20383;-48
2022/09/02 07:55:33;;;;;;;2.93;1.77;;;21.30;63.10;;;;;;7388956;19;20375;-48
2022/09/02 07:58:03;;;;;;;4.63;2.07;;;21.50;61.40;;;;;;7388767;19;21058;-48
2022/09/02 08:00:36;;;;;;;5.83;2.43;;;21.50;59.90;;;;;;7387361;19;20431;-48
2022/09/02 08:03:13;;;;;;;2.30;1.63;;;21.70;60.00;;;;;;7387556;19;20772;-47
2022/09/02 08:05:49;;;;;;;1.80;1.70;;;21.70;59.10;;;;;;7387853;19;20903;-48
2022/09/02 08:08:20;;;;;;;2.00;1.80;;;21.60;59.60;;;;;;7390036;19;20368;-48
2022/09/02 08:10:50;;;;;;;2.50;1.70;;;21.80;58.90;;;;;;7389539;19;20377;-48
2022/09/02 08:13:20;;;;;;;3.30;2.30;;;21.90;58.70;;;;;;7389034;19;20390;-48
2022/09/02 08:15:53;;;;;;;7.53;2.00;;;22.30;57.80;;;;;;7388535;19;20364;-48
2022/09/02 08:18:22;;;;;;;4.60;1.93;;;22.40;56.80;;;;;;7387856;19;20372;-48
2022/09/02 08:20:52;;;;;;;2.70;2.13;;;22.40;56.70;;;;;;7387797;19;20484;-48
2022/09/02 08:23:27;;;;;;;1.87;1.73;;;22.30;57.10;;;;;;7391074;19;20444;-48
2022/09/02 08:25:57;;;;;;;1.90;1.80;;;22.00;56.70;;;;;;7389008;19;20387;-48
2022/09/02 08:28:26;;;;;;;3.63;2.03;;;21.90;57.30;;;;;;7389969;19;20376;-48
2022/09/02 08:30:59;;;;;;;2.57;2.03;;;22.00;58.00;;;;;;7388508;19;20372;-48
2022/09/02 08:33:28;;;;;;;3.10;1.90;;;22.30;56.40;;;;;;7386932;19;20392;-48
2022/09/02 08:35:58;;;;;;;3.13;1.70;;;22.60;56.20;;;;;;7388519;19;21445;-48
2022/09/02 08:38:27;;;;;;;1.90;1.70;;;23.00;55.10;;;;;;7388930;19;20797;-48
2022/09/02 08:40:57;;;;;;;3.63;1.60;;;23.40;54.40;;;;;;7387870;19;20392;-48
2022/09/02 08:43:38;;;;;;;3.73;1.43;;;23.60;53.90;;;;;;7388325;19;20418;-48
2022/09/02 08:46:15;;;;;;;1.63;1.53;;;23.60;52.50;;;;;;7388300;19;20372;-48
2022/09/02 08:48:51;;;;;;;3.23;1.67;;;23.70;52.90;;;;;;7389396;19;20933;-48
2022/09/02 08:51:26;;;;;;;2.47;1.60;;;24.10;51.90;;;;;;7388453;19;20905;-57
2022/09/02 08:54:02;;;;;;;1.33;1.23;;;24.50;50.70;;;;;;7386232;19;20387;-56
2022/09/02 08:56:31;;;;;;;2.00;1.33;;;24.70;50.00;;;;;;7389498;19;20383;-56
2022/09/02 08:59:02;;;;;;;5.87;1.80;;;24.80;49.40;;;;;;7387692;19;20427;-57
2022/09/02 09:01:45;;;;;;;2.20;1.30;;;25.00;49.70;;;;;;7385787;19;20436;-56
2022/09/02 09:04:30;;;;;;;2.07;1.63;;;25.10;48.40;;;;;;7388463;19;20416;-57
2022/09/02 09:07:12;;;;;;;2.00;1.40;;;24.90;47.80;;;;;;7386778;19;20921;-56
2022/09/02 09:09:59;;;;;;;1.70;1.30;;;25.00;48.90;;;;;;7388103;19;20364;-57
2022/09/02 09:12:43;;;;;;;2.10;1.53;;;25.10;48.50;;;;;;7386566;19;20383;-56
2022/09/02 09:15:22;;;;;;;1.60;1.30;;;25.10;48.50;;;;;;7386455;19;20379;-57
2022/09/02 09:17:59;;;;;;;2.00;1.40;;;25.70;47.50;;;;;;7387596;19;20420;-57
2022/09/02 09:20:30;;;;;;;2.43;1.47;;;26.10;47.10;;;;;;7387722;19;21212;-57
2022/09/02 09:23:02;;;;;;;3.40;1.50;;;26.60;45.80;;;;;;7388844;19;20452;-56
2022/09/02 09:25:32;;;;;;;1.50;1.30;;;26.40;44.70;;;;;;7388725;19;20388;-56
2022/09/02 09:28:04;;;;;;;1.90;1.47;;;26.10;45.60;;;;;;7387767;19;20380;-56
2022/09/02 09:30:34;;;;;;;1.63;1.20;;;26.40;44.10;;;;;;7385487;19;20379;-56
2022/09/02 09:33:07;;;;;;;1.30;1.10;;;26.20;44.60;;;;;;7386709;19;20777;-56
2022/09/02 09:35:51;;;;;;;2.43;1.63;;;26.60;44.20;;;;;;7385105;19;21471;-56
2022/09/02 09:38:31;;;;;;;4.23;1.20;;;26.70;43.50;;;;;;7387048;19;20372;-56
2022/09/02 09:41:21;;;;;;;1.67;1.47;;;27.10;42.50;;;;;;7387013;19;20771;-56
2022/09/02 09:43:51;;;;;;;2.40;1.37;;;27.00;43.00;;;;;;7387150;19;20369;-58
2022/09/02 09:46:31;;;;;;;1.80;1.10;;;27.30;41.80;;;;;;7385197;19;20382;-56
2022/09/02 09:49:03;;;;;;;1.00;0.77;;;27.30;41.50;;;;;;7388401;19;20379;-56
2022/09/02 09:51:32;;;;;;;1.30;1.00;;;27.50;41.70;;;;;;7385944;19;20384;-56
2022/09/02 09:54:17;;;;;;;1.37;1.00;;;27.80;41.20;;;;;;7385318;19;20384;-56
2022/09/02 09:56:47;;;;;;;2.60;1.33;;;28.30;40.50;;;;;;7386423;19;21438;-56
2022/09/02 09:59:40;;;;;;;3.57;1.47;;;28.60;39.00;;;;;;7385922;19;20653;-56
2022/09/02 10:02:22;;;;;;;1.47;1.00;;;28.70;39.20;;;;;;7382231;19;20448;-56
2022/09/02 10:04:56;;;;;;;2.10;1.03;;;28.70;37.80;;;;;;7385701;19;20898;-56
2022/09/02 10:07:40;;;;;;;1.10;0.87;;;28.40;38.00;;;;;;7383740;19;20949;-56
2022/09/02 10:10:18;;;;;;;1.97;1.30;;;28.60;38.50;;;;;;7383601;19;20491;-57
2022/09/02 10:12:48;;;;;;;1.57;1.10;;;28.80;37.80;;;;;;7385190;19;20748;-56
2022/09/02 10:15:30;;;;;;;1.20;1.10;;;28.90;37.20;;;;;;7384009;19;20397;-56
2022/09/02 10:18:13;;;;;;;2.53;1.53;;;29.20;37.00;;;;;;7383734;19;21005;-56
2022/09/02 10:20:57;;;;;;;1.20;0.90;;;28.60;37.80;;;;;;7386054;19;20903;-56
2022/09/02 10:23:33;;;;;;;1.80;0.93;;;28.90;37.10;;;;;;7385311;19;20375;-56
2022/09/02 10:26:14;;;;;;;2.07;1.20;;;28.70;36.50;;;;;;7385087;19;20915;-56
2022/09/02 10:29:08;;;;;;;1.60;1.10;;;28.50;36.40;;;;;;7381180;19;20390;-57
2022/09/02 10:31:46;;;;;;;2.73;0.90;;;29.00;36.00;;;;;;7384023;19;20717;-56
2022/09/02 10:34:27;;;;;;;2.00;0.90;;;29.40;35.40;;;;;;7383303;19;20414;-56
2022/09/02 10:37:13;;;;;;;1.50;1.10;;;29.10;35.00;;;;;;7385281;19;20416;-56
2022/09/02 10:40:10;;;;;;;2.07;0.97;;;29.40;35.10;;;;;;7385258;19;20907;-56
2022/09/02 10:42:53;;;;;;;1.17;1.07;;;29.10;34.80;;;;;;7384352;19;20845;-56
2022/09/02 10:45:33;;;;;;;2.70;1.07;;;28.90;35.50;;;;;;7383392;19;20957;-57
2022/09/02 10:48:14;;;;;;;2.60;1.00;;;29.40;35.40;;;;;;7385040;19;20384;-56
2022/09/02 10:50:52;;;;;;;1.43;1.20;;;29.50;34.80;;;;;;7382771;19;20513;-57
2022/09/02 10:53:54;;;;;;;1.53;1.17;;;29.70;34.30;;;;;;7385432;19;20409;-57
2022/09/02 10:56:28;;;;;;;1.10;0.90;;;29.90;35.10;;;;;;7384316;19;20914;-57
2022/09/02 10:59:02;;;;;;;1.13;1.00;;;29.30;34.90;;;;;;7383118;19;20376;-57
2022/09/02 11:01:37;;;;;;;1.03;0.90;;;29.30;34.50;;;;;;7382832;19;20428;-57
2022/09/02 11:04:12;;;;;;;0.80;0.60;;;29.50;34.70;;;;;;7385859;19;20438;-57
2022/09/02 11:06:44;;;;;;;1.40;1.10;;;29.50;34.40;;;;;;7382296;19;20413;-56
2022/09/02 11:09:28;;;;;;;2.27;1.33;;;29.10;34.20;;;;;;7384874;19;20903;-57
2022/09/02 11:12:04;;;;;;;3.17;1.00;;;29.00;35.20;;;;;;7382707;19;20416;-56
2022/09/02 11:14:37;;;;;;;1.60;1.07;;;28.50;35.60;;;;;;7384422;19;20917;-56
2022/09/02 11:17:12;;;;;;;1.50;1.33;;;29.00;34.70;;;;;;7383461;19;20388;-56
2022/09/02 11:19:45;;;;;;;2.03;0.90;;;29.90;34.60;;;;;;7383921;19;20935;-56
2022/09/02 11:22:25;;;;;;;0.90;0.80;;;30.40;33.50;;;;;;7385173;19;20376;-56
2022/09/02 11:25:02;;;;;;;1.17;0.93;;;31.10;32.20;;;;;;7383393;19;20933;-57
2022/09/02 11:27:38;;;;;;;1.13;0.80;;;30.60;32.00;;;;;;7384424;19;20383;-56
2022/09/02 11:30:13;;;;;;;1.27;1.03;;;30.10;32.90;;;;;;7384603;19;20390;-56
2022/09/02 11:32:49;;;;;;;1.70;1.20;;;29.50;34.00;;;;;;7383056;19;20372;-56
2022/09/02 11:35:23;;;;;;;1.53;1.03;;;28.70;34.20;;;;;;7381404;19;21091;-56
2022/09/02 11:37:58;;;;;;;3.97;1.10;;;28.70;35.00;;;;;;7383469;19;20375;-56
2022/09/02 11:40:36;;;;;;;2.20;0.90;;;29.00;34.50;;;;;;7390107;19;20387;-56
2022/09/02 11:43:29;;;;;;;1.80;1.30;;;29.20;33.80;;;;;;7391998;19;20375;-56
2022/09/02 11:46:27;;;;;;;3.37;1.57;;;29.10;34.30;;;;;;7389126;19;20375;-56
2022/09/02 11:49:31;;;;;;;5.23;1.37;;;29.40;34.40;;;;;;7389291;19;20890;-57
2022/09/02 11:52:21;;;;;;;1.23;1.10;;;30.10;33.30;;;;;;7391112;19;20913;-56
2022/09/02 11:55:03;;;;;;;2.73;1.13;;;30.50;33.60;;;;;;7389534;19;20669;-56
2022/09/02 11:57:39;;;;;;;1.33;1.20;;;30.90;33.00;;;;;;7390812;19;20386;-56
2022/09/02 12:00:28;;;;;;;1.77;1.33;;;31.20;32.50;;;;;;7386670;19;20375;-56
2022/09/02 12:03:20;;;;;;;1.00;0.90;;;31.40;32.00;;;;;;7390898;19;20379;-56
2022/09/02 12:05:52;;;;;;;1.93;1.40;;;31.40;31.20;;;;;;7388505;19;20391;-56
2022/09/02 12:09:12;;;;;;;1.37;1.07;;;30.80;32.30;;;;;;7388728;19;20380;-56
2022/09/02 12:11:53;;;;;;;1.53;1.30;;;30.60;32.50;;;;;;7387270;19;20923;-56
2022/09/02 12:14:59;;;;;;;1.53;1.00;;;30.40;33.00;;;;;;7389816;19;20391;-56
2022/09/02 12:18:03;;;;;;;1.20;1.03;;;30.60;32.90;;;;;;7389156;19;20388;-56
2022/09/02 12:21:09;;;;;;;1.63;1.20;;;30.30;33.70;;;;;;7390801;19;20482;-56
2022/09/02 12:24:09;;;;;;;1.60;1.33;;;29.50;34.30;;;;;;7388379;19;20375;-56
2022/09/02 12:27:08;;;;;;;2.10;1.60;;;29.70;34.20;;;;;;7387239;19;20376;-56
2022/09/02 12:29:44;;;;;;;1.70;1.20;;;29.40;34.40;;;;;;7388237;19;20384;-56
2022/09/02 12:32:13;;;;;;;5.70;1.23;;;29.50;34.10;;;;;;7387375;19;20397;-56
2022/09/02 12:35:12;;;;;;;2.40;1.33;;;29.60;34.40;;;;;;7387623;19;20384;-56
2022/09/02 12:37:56;;;;;;;1.70;1.07;;;29.60;34.60;;;;;;7388328;19;20379;-56
2022/09/02 12:40:35;;;;;;;1.50;1.00;;;30.30;34.10;;;;;;7388750;19;20942;-56
2022/09/02 12:43:18;;;;;;;1.13;1.03;;;30.30;32.50;;;;;;7387992;19;20372;-56
2022/09/02 12:45:48;;;;;;;1.10;1.00;;;30.30;33.30;;;;;;7389133;19;20736;-56
2022/09/02 12:48:21;;;;;;;1.60;0.80;;;30.40;32.80;;;;;;7389410;19;20385;-56
2022/09/02 12:50:58;;;;;;;3.30;1.00;;;30.50;33.00;;;;;;7385610;19;20372;-56
2022/09/02 12:53:41;;;;;;;1.60;1.17;;;31.00;32.40;;;;;;7389229;19;20364;-57
2022/09/02 12:56:22;;;;;;;1.27;1.07;;;31.20;32.20;;;;;;7389111;19;20368;-57
2022/09/02 12:58:55;;;;;;;1.00;0.93;;;31.60;31.10;;;;;;7386343;19;20954;-57
2022/09/02 13:01:43;;;;;;;1.10;1.00;;;32.00;31.00;;;;;;7384875;19;20439;-57
2022/09/02 13:04:27;;;;;;;1.70;1.27;;;32.00;31.10;;;;;;7387969;19;21139;-57
2022/09/02 13:07:41;;;;;;;1.47;1.10;;;31.40;32.40;;;;;;7387273;19;20431;-57
2022/09/02 13:10:38;;;;;;;2.13;1.93;;;31.70;32.30;;;;;;7386784;19;20416;-57
2022/09/02 13:13:40;;;;;;;3.07;1.20;;;32.10;32.00;;;;;;7388167;19;20414;-57
2022/09/02 13:16:17;;;;;;;2.27;1.60;;;31.80;32.60;;;;;;7385743;19;20411;-57
2022/09/02 13:19:12;;;;;;;2.70;1.30;;;31.90;31.50;;;;;;7362557;19;20415;-57
2022/09/02 13:22:02;;;;;;;2.37;1.43;;;31.90;32.00;;;;;;7386965;19;20767;-57
2022/09/02 13:25:04;;;;;;;2.00;1.60;;;31.90;31.80;;;;;;7385831;19;20384;-57
2022/09/02 13:28:12;;;;;;;2.83;1.67;;;32.20;31.30;;;;;;7386543;19;20408;-57
2022/09/02 13:31:09;;;;;;;1.80;1.23;;;32.20;32.20;;;;;;7387117;19;20930;-57
2022/09/02 13:33:39;;;;;;;1.80;1.70;;;31.70;32.70;;;;;;7385133;19;20392;-57
2022/09/02 13:36:09;;;;;;;1.60;1.50;;;31.20;33.00;;;;;;7385742;19;20740;-57
2022/09/02 13:38:38;;;;;;;5.17;1.50;;;30.50;34.40;;;;;;7386724;19;20655;-57